Oakland, RI (02858)

7:14 AM EDT on July 23, 2016 (GMT -0400)
Whipple | | Change Station

Elev 364 ft 41.97 °N, 71.66 °W | Updated 14 seconds ago

Clear
Clear
70.0 °F
Feels Like 70.0 °F
N
0.7
Wind Variable Wind from East
Gusts 1.6 mph

Today
High -- | Low -- °F
--% Chance of Precip.
Yesterday
High -- | Low -- °F
Precip. -- in
Pressure 29.78 in
Visibility 7.0 miles
Clouds Clear
Dew Point 70 °F
Humidity 99%
Rainfall 0.00 in
Snow Depth Not available.
5:31 AM 8:13 PM
Waning Gibbous, 86% visible
METAR KPVD 231051Z 26006KT 7SM CLR 23/21 A2978 RMK AO2 SLP082 T02330211 $
Pressure 29.78 in
Visibility 7.0 miles
Clouds Clear
Dew Point 70 °F
Humidity 99%
Rainfall 0.00 in
Snow Depth Not available.
5:31 AM 8:13 PM
Waning Gibbous, 86% visible
METAR KPVD 231051Z 26006KT 7SM CLR 23/21 A2978 RMK AO2 SLP082 T02330211 $

10-Day Weather Forecast

Almanac

Astronomy

Jul. 23, 2016 Rise Set
Actual Time
Civil Twilight
Nautical Twilight
Astronomical Twilight
Moon
Length of Visible Light
Length of Day
Tomorrow will be .
, % of the Moon is Illuminated

Today's Extremes

State Highs State Lows

Community

WunderPhotos

Upload Photos

1,926,798 photos uploaded!

WunderBlog® & News

Nearby

Air Quality

  Air Quality AQ Index Pollutant
Not available.

Snow Depth

Station Depth Elevation

Earthquake Activity

City Distance Mag. Time & Date
Minimum magnitude displayed is 2.5.

Coastal Water Temperatures

Place Temperature

Stations

Nearby Weather Stations

Station Location Temp. Windchill Dew Point Humidity Wind Precip. Elev Updated Type
                   

Watches & Warnings

There are currently no watches in effect.